createdAt,value
2018-06-24T00:01:13.382Z,102489.16
2018-06-24T00:03:47.145Z,102495.82
2018-06-24T00:06:20.199Z,102501.25
2018-06-24T00:08:52.017Z,102498.48
2018-06-24T00:11:24.644Z,102499.01
2018-06-24T00:13:57.656Z,102490.64
2018-06-24T00:16:29.333Z,102488.10
2018-06-24T00:19:02.536Z,102485.73
2018-06-24T00:21:35.332Z,102483.08
2018-06-24T00:24:06.779Z,102473.23
2018-06-24T00:26:41.433Z,102475.70
2018-06-24T00:29:13.514Z,102474.37
2018-06-24T00:31:46.314Z,102470.52
2018-06-24T00:34:19.197Z,102467.88
2018-06-24T00:36:51.956Z,102463.16
2018-06-24T00:39:23.426Z,102467.48
2018-06-24T00:41:57.741Z,102464.75
2018-06-24T00:44:31.898Z,102460.89
2018-06-24T00:47:01.839Z,102454.89
2018-06-24T00:49:35.440Z,102453.62
2018-06-24T00:52:04.942Z,102459.80
2018-06-24T00:54:39.764Z,102457.09
2018-06-24T00:57:12.362Z,102452.34
2018-06-24T01:00:18.823Z,102452.02
2018-06-24T01:02:50.201Z,102448.97
2018-06-24T01:05:21.710Z,102446.02
2018-06-24T01:07:56.050Z,102448.13
2018-06-24T01:10:30.353Z,102452.60
2018-06-24T01:13:03.339Z,102448.20
2018-06-24T01:15:36.177Z,102446.87
2018-06-24T01:18:08.993Z,102447.97
2018-06-24T01:20:43.299Z,102449.20
2018-06-24T01:23:15.989Z,102452.14
2018-06-24T01:25:48.944Z,102453.47
2018-06-24T01:28:22.197Z,102450.77
2018-06-24T01:30:55.278Z,102448.29
2018-06-24T01:33:29.666Z,102448.14
2018-06-24T01:36:00.995Z,102448.78
2018-06-24T01:38:34.395Z,102446.10
2018-06-24T01:41:06.466Z,102446.10
2018-06-24T01:43:39.374Z,102447.52
2018-06-24T01:46:10.727Z,102442.22
2018-06-24T01:48:42.535Z,102439.75
2018-06-24T01:51:16.837Z,102436.33
2018-06-24T01:53:49.798Z,102438.27
2018-06-24T01:56:21.184Z,102440.75
2018-06-24T01:58:50.480Z,102434.00
2018-06-24T02:01:25.055Z,102436.86
2018-06-24T02:03:57.268Z,102432.23
2018-06-24T02:06:29.940Z,102424.69
2018-06-24T02:09:04.359Z,102424.47
2018-06-24T02:11:38.697Z,102419.60
2018-06-24T02:14:13.084Z,102418.14
2018-06-24T02:16:46.688Z,102423.64
2018-06-24T02:19:18.016Z,102416.99
2018-06-24T02:21:51.551Z,102415.81
2018-06-24T02:24:24.311Z,102408.52
2018-06-24T02:26:55.702Z,102407.59
2018-06-24T02:29:30.038Z,102406.17
2018-06-24T02:32:02.936Z,102405.59
2018-06-24T02:34:35.805Z,102411.18
2018-06-24T02:37:07.099Z,102406.44
2018-06-24T02:39:39.965Z,102406.09
2018-06-24T02:42:10.603Z,102411.17
2018-06-24T02:44:42.958Z,102404.48
2018-06-24T02:47:15.895Z,102406.09
2018-06-24T02:49:47.903Z,102408.89
2018-06-24T02:52:19.254Z,102409.58
2018-06-24T02:54:53.269Z,102411.16
2018-06-24T02:57:25.652Z,102418.70
2018-06-24T02:59:54.808Z,102407.18
2018-06-24T03:02:26.805Z,102410.31
2018-06-24T03:05:01.192Z,102408.98
2018-06-24T03:07:32.507Z,102410.78
2018-06-24T03:10:05.409Z,102410.21
2018-06-24T03:12:39.132Z,102413.23
2018-06-24T03:15:13.939Z,102406.41
2018-06-24T03:17:48.268Z,102403.37
2018-06-24T03:20:18.663Z,102408.86
2018-06-24T03:22:51.594Z,102406.34
2018-06-24T03:25:22.999Z,102409.81
2018-06-24T03:27:55.854Z,102412.42
2018-06-24T03:30:25.895Z,102411.66
2018-06-24T03:32:57.393Z,102408.81
2018-06-24T03:35:31.628Z,102419.53
2018-06-24T03:38:04.537Z,102418.08
2018-06-24T03:40:35.798Z,102416.02
2018-06-24T03:43:07.129Z,102419.23
2018-06-24T03:45:38.950Z,102416.79
2018-06-24T03:48:13.436Z,102412.20
2018-06-24T03:50:44.136Z,102418.58
2018-06-24T03:53:17.044Z,102417.47
2018-06-24T03:55:49.907Z,102423.61
2018-06-24T03:58:22.778Z,102427.42
2018-06-24T04:00:53.410Z,102433.76
2018-06-24T04:03:27.607Z,102434.11
2018-06-24T04:06:01.897Z,102430.00
2018-06-24T04:08:33.305Z,102433.03
2018-06-24T04:11:06.918Z,102441.39
2018-06-24T04:13:36.832Z,102443.32
2018-06-24T04:16:11.282Z,102445.16
2018-06-24T04:18:46.106Z,102455.48
2018-06-24T04:21:17.551Z,102453.42
2018-06-24T04:23:49.874Z,102451.32
2018-06-24T04:26:21.440Z,102458.98
2018-06-24T04:28:54.263Z,102461.04
2018-06-24T04:31:27.370Z,102463.59
2018-06-24T04:34:00.152Z,102462.83
2018-06-24T04:36:34.498Z,102475.69
2018-06-24T04:39:10.347Z,102468.38
2018-06-24T04:41:42.045Z,102469.92
2018-06-24T04:44:16.414Z,102472.95
2018-06-24T04:46:47.501Z,102470.87
2018-06-24T04:49:18.907Z,102478.47
2018-06-24T04:51:48.796Z,102477.47
2018-06-24T04:54:20.111Z,102480.17
2018-06-24T04:56:49.283Z,102477.64
2018-06-24T04:59:21.142Z,102473.70
2018-06-24T05:01:56.267Z,102481.84
2018-06-24T05:04:29.705Z,102474.45
2018-06-24T05:07:04.398Z,102472.13
2018-06-24T05:09:38.637Z,102468.22
2018-06-24T05:12:11.557Z,102476.16
2018-06-24T05:14:43.378Z,102477.84
2018-06-24T05:17:15.461Z,102473.20
2018-06-24T05:19:49.841Z,102477.83
2018-06-24T05:22:24.147Z,102478.52
2018-06-24T05:24:56.775Z,102484.41
2018-06-24T05:27:28.143Z,102482.77
2018-06-24T05:29:58.053Z,102481.84
2018-06-24T05:32:29.616Z,102491.99
2018-06-24T05:35:00.984Z,102486.83
2018-06-24T05:37:31.048Z,102482.85
2018-06-24T05:40:03.819Z,102477.73
2018-06-24T05:42:35.313Z,102485.56
2018-06-24T05:45:07.259Z,102485.58
2018-06-24T05:47:38.730Z,102489.69
2018-06-24T05:50:13.062Z,102489.98
2018-06-24T05:52:44.581Z,102493.78
2018-06-24T05:55:15.259Z,102493.19
2018-06-24T05:57:44.459Z,102496.98
2018-06-24T06:00:18.652Z,102501.20
2018-06-24T06:02:49.749Z,102500.08
2018-06-24T06:05:22.648Z,102495.80
2018-06-24T06:07:55.549Z,102496.81
2018-06-24T06:10:26.984Z,102494.94
2018-06-24T06:13:01.325Z,102493.78
2018-06-24T06:15:34.225Z,102498.61
2018-06-24T06:18:08.868Z,102498.79
2018-06-24T06:20:40.219Z,102497.47
2018-06-24T06:23:12.209Z,102499.20
2018-06-24T06:25:46.756Z,102501.17
2018-06-24T06:28:18.110Z,102505.09
2018-06-24T06:30:51.942Z,102503.20
2018-06-24T06:33:24.249Z,102504.65
2018-06-24T06:35:59.404Z,102512.03
2018-06-24T06:38:33.912Z,102509.08
2018-06-24T06:41:05.222Z,102514.13
2018-06-24T06:43:38.933Z,102513.41
2018-06-24T06:46:16.538Z,102508.75
2018-06-24T06:48:47.868Z,102513.88
2018-06-24T06:51:21.869Z,102516.73
2018-06-24T06:53:52.717Z,102513.27
2018-06-24T06:56:25.824Z,102511.13
2018-06-24T06:58:57.454Z,102511.17
2018-06-24T07:01:30.426Z,102518.21
2018-06-24T07:04:05.330Z,102512.96
2018-06-24T07:06:38.040Z,102519.75
2018-06-24T07:09:14.066Z,102511.50
2018-06-24T07:11:46.767Z,102520.68
2018-06-24T07:14:19.882Z,102525.13
2018-06-24T07:16:54.101Z,102522.39
2018-06-24T07:19:25.625Z,102528.03
2018-06-24T07:21:59.395Z,102526.66
2018-06-24T07:24:30.755Z,102526.30
2018-06-24T07:27:04.545Z,102525.66
2018-06-24T07:29:38.709Z,102530.89
2018-06-24T07:32:10.007Z,102526.88
2018-06-24T07:34:42.816Z,102517.28
2018-06-24T07:37:12.347Z,102521.76
2018-06-24T07:39:45.644Z,102517.20
2018-06-24T07:42:18.532Z,102523.17
2018-06-24T07:44:51.032Z,102516.38
2018-06-24T07:47:23.823Z,102518.31
2018-06-24T07:49:58.142Z,102525.23
2018-06-24T07:52:31.031Z,102522.13
2018-06-24T07:55:04.148Z,102511.64
2018-06-24T07:57:37.040Z,102511.72
2018-06-24T08:00:11.322Z,102513.34
2018-06-24T08:02:45.641Z,102519.47
2018-06-24T08:05:17.129Z,102523.95
2018-06-24T08:07:49.320Z,102519.95
2018-06-24T08:10:22.196Z,102517.42
2018-06-24T08:12:55.121Z,102515.92
2018-06-24T08:15:28.000Z,102513.25
2018-06-24T08:18:00.731Z,102512.54
2018-06-24T08:20:35.304Z,102519.11
2018-06-24T08:23:08.271Z,102523.78
2018-06-24T08:25:41.541Z,102526.52
2018-06-24T08:28:14.300Z,102529.20
2018-06-24T08:30:48.526Z,102521.64
2018-06-24T08:33:19.864Z,102533.91
2018-06-24T08:35:52.703Z,102530.27
2018-06-24T08:38:25.595Z,102530.88
2018-06-24T08:40:59.836Z,102535.06
2018-06-24T08:43:32.756Z,102526.38
2018-06-24T08:46:04.342Z,102527.42
2018-06-24T08:48:37.073Z,102527.70
2018-06-24T08:51:11.374Z,102523.40
2018-06-24T08:53:45.009Z,102523.51
2018-06-24T08:56:17.997Z,102517.31
2018-06-24T08:58:47.985Z,102524.66
2018-06-24T09:01:19.436Z,102523.31
2018-06-24T09:03:53.823Z,102530.00
2018-06-24T09:06:25.334Z,102521.99
2018-06-24T09:08:58.150Z,102525.95
2018-06-24T09:11:31.231Z,102524.73
2018-06-24T09:14:03.007Z,102529.05
2018-06-24T09:16:34.228Z,102523.66
2018-06-24T09:19:07.676Z,102533.05
2018-06-24T09:21:42.137Z,102535.95
2018-06-24T09:24:15.326Z,102533.27
2018-06-24T09:26:49.813Z,102533.75
2018-06-24T09:29:21.124Z,102539.80
2018-06-24T09:31:54.011Z,102533.62
2018-06-24T09:34:26.933Z,102531.70
2018-06-24T09:36:59.740Z,102529.91
2018-06-24T09:39:32.499Z,102533.05
2018-06-24T09:42:06.785Z,102534.48
2018-06-24T09:44:39.645Z,102548.09
2018-06-24T09:47:11.002Z,102549.23
2018-06-24T09:49:43.822Z,102548.03
2018-06-24T09:52:15.269Z,102552.84
2018-06-24T09:54:48.612Z,102547.20
2018-06-24T09:57:20.209Z,102548.68
2018-06-24T09:59:54.500Z,102551.34
2018-06-24T10:02:26.150Z,102554.98
2018-06-24T10:05:00.572Z,102553.19
2018-06-24T10:07:33.328Z,102549.09
2018-06-24T10:10:06.629Z,102550.00
2018-06-24T10:12:39.332Z,102548.14
2018-06-24T10:15:11.708Z,102550.52
2018-06-24T10:17:43.708Z,102546.14
2018-06-24T10:20:16.063Z,102543.27
2018-06-24T10:22:48.317Z,102539.28
2018-06-24T10:25:20.114Z,102535.75
2018-06-24T10:27:54.767Z,102539.05
2018-06-24T10:30:27.206Z,102536.52
2018-06-24T10:33:00.065Z,102536.16
2018-06-24T10:35:30.535Z,102544.80
2018-06-24T10:38:03.438Z,102546.11
2018-06-24T10:40:38.637Z,102547.63
2018-06-24T10:43:10.097Z,102542.93
2018-06-24T10:45:44.652Z,102547.34
2018-06-24T10:48:18.901Z,102541.39
2018-06-24T10:50:51.793Z,102534.56
2018-06-24T10:53:24.730Z,102537.45
2018-06-24T10:55:56.098Z,102535.98
2018-06-24T10:58:27.496Z,102535.28
2018-06-24T11:01:00.513Z,102539.41
2018-06-24T11:03:33.617Z,102534.20
2018-06-24T11:06:06.393Z,102531.70
2018-06-24T11:08:39.244Z,102535.86
2018-06-24T11:11:12.405Z,102532.07
2018-06-24T11:13:45.120Z,102528.30
2018-06-24T11:16:17.171Z,102526.65
2018-06-24T11:18:51.684Z,102527.12
2018-06-24T11:21:24.484Z,102523.38
2018-06-24T11:23:57.588Z,102527.36
2018-06-24T11:26:31.258Z,102514.56
2018-06-24T11:29:05.143Z,102520.06
2018-06-24T11:31:35.811Z,102518.45
2018-06-24T11:34:07.213Z,102509.95
2018-06-24T11:36:41.449Z,102503.44
2018-06-24T11:39:14.387Z,102506.60
2018-06-24T11:41:46.357Z,102509.95
2018-06-24T11:44:20.761Z,102501.59
2018-06-24T11:46:53.579Z,102495.73
2018-06-24T11:49:24.256Z,102501.99
2018-06-24T11:51:57.039Z,102510.17
2018-06-24T11:54:28.671Z,102505.99
2018-06-24T11:57:01.986Z,102500.55
2018-06-24T11:59:36.658Z,102504.45
2018-06-24T12:02:09.413Z,102503.05
2018-06-24T12:04:42.254Z,102503.63
2018-06-24T12:07:13.639Z,102501.56
2018-06-24T12:09:48.159Z,102503.91
2018-06-24T12:12:21.022Z,102497.67
2018-06-24T12:14:53.024Z,102507.36
2018-06-24T12:17:27.724Z,102490.23
2018-06-24T12:19:59.262Z,102494.98
2018-06-24T12:22:32.241Z,102494.22
2018-06-24T12:25:05.194Z,102491.59
2018-06-24T12:27:38.344Z,102492.92
2018-06-24T12:30:10.415Z,102495.53
2018-06-24T12:32:41.847Z,102492.50
2018-06-24T12:35:14.701Z,102494.49
2018-06-24T12:37:47.090Z,102494.00
2018-06-24T12:40:33.325Z,102482.24
2018-06-24T12:43:06.305Z,102486.70
2018-06-24T12:45:38.929Z,102476.12
2018-06-24T12:48:10.275Z,102480.65
2018-06-24T12:50:41.698Z,102481.05
2018-06-24T12:53:14.696Z,102479.86
2018-06-24T12:55:46.836Z,102482.21
2018-06-24T12:58:18.474Z,102477.45
2018-06-24T13:00:51.851Z,102470.73
2018-06-24T13:03:25.723Z,102471.41
2018-06-24T13:05:58.048Z,102470.67
2018-06-24T13:08:30.792Z,102468.38
2018-06-24T13:11:02.090Z,102468.62
2018-06-24T13:13:34.961Z,102470.55
2018-06-24T13:16:06.368Z,102467.45
2018-06-24T13:18:39.315Z,102477.72
2018-06-24T13:21:11.903Z,102475.31
2018-06-24T13:23:44.768Z,102474.75
2018-06-24T13:26:17.708Z,102477.08
2018-06-24T13:28:49.012Z,102472.55
2018-06-24T13:31:21.968Z,102477.55
2018-06-24T13:33:54.871Z,102480.98
2018-06-24T13:36:29.227Z,102476.53
2018-06-24T13:39:01.008Z,102479.88
2018-06-24T13:41:34.047Z,102486.88
2018-06-24T13:44:08.798Z,102483.28
2018-06-24T13:46:43.241Z,102484.69
2018-06-24T13:49:16.366Z,102482.91
2018-06-24T13:51:48.530Z,102475.70
2018-06-24T13:54:17.986Z,102479.11
2018-06-24T13:56:50.109Z,102475.54
2018-06-24T13:59:21.423Z,102476.27
2018-06-24T14:01:54.292Z,102482.20
2018-06-24T14:04:27.189Z,102483.28
2018-06-24T14:06:57.050Z,102475.75
2018-06-24T14:09:30.908Z,102481.77
2018-06-24T14:12:05.238Z,102479.52
2018-06-24T14:14:38.038Z,102474.08
2018-06-24T14:17:10.499Z,102478.94
2018-06-24T14:19:43.745Z,102479.77
2018-06-24T14:22:15.109Z,102475.68
2018-06-24T14:24:47.969Z,102475.85
2018-06-24T14:27:22.361Z,102478.16
2018-06-24T14:29:59.553Z,102476.12
2018-06-24T14:32:32.426Z,102478.28
2018-06-24T14:35:05.356Z,102476.91
2018-06-24T14:37:39.686Z,102477.31
2018-06-24T14:40:11.122Z,102479.17
2018-06-24T14:42:43.993Z,102477.75
2018-06-24T14:45:17.268Z,102475.81
2018-06-24T14:47:46.577Z,102479.62
2018-06-24T14:50:19.984Z,102483.91
2018-06-24T14:52:52.365Z,102478.72
2018-06-24T14:55:23.692Z,102477.13
2018-06-24T14:57:53.649Z,102475.13
2018-06-24T15:00:26.601Z,102476.89
2018-06-24T15:02:59.489Z,102479.30
2018-06-24T15:05:32.820Z,102479.92
2018-06-24T15:08:05.708Z,102477.32
2018-06-24T15:10:38.749Z,102471.86
2018-06-24T15:13:11.536Z,102474.84
2018-06-24T15:15:42.983Z,102466.18
2018-06-24T15:18:14.426Z,102468.39
2018-06-24T15:20:45.818Z,102463.92
2018-06-24T15:23:18.601Z,102470.31
2018-06-24T15:25:50.489Z,102468.63
2018-06-24T15:28:25.110Z,102473.05
2018-06-24T15:30:58.012Z,102471.81
2018-06-24T15:33:30.821Z,102472.86
2018-06-24T15:36:05.080Z,102463.20
2018-06-24T15:38:37.875Z,102465.37
2018-06-24T15:41:07.972Z,102470.52
2018-06-24T15:43:42.316Z,102462.95
2018-06-24T15:46:13.621Z,102466.17
2018-06-24T15:48:48.734Z,102462.49
2018-06-24T15:51:21.649Z,102454.70
2018-06-24T15:53:52.872Z,102462.49
2018-06-24T15:56:23.754Z,102461.66
2018-06-24T15:58:55.118Z,102450.13
2018-06-24T16:01:27.887Z,102443.41
2018-06-24T16:03:59.425Z,102439.28
2018-06-24T16:06:32.225Z,102439.91
2018-06-24T16:09:06.547Z,102444.11
2018-06-24T16:11:40.344Z,102439.03
2018-06-24T16:14:13.440Z,102435.58
2018-06-24T16:16:46.313Z,102436.69
2018-06-24T16:19:19.075Z,102436.96
2018-06-24T16:21:48.129Z,102434.72
2018-06-24T16:24:20.972Z,102437.02
2018-06-24T16:26:54.385Z,102435.55
2018-06-24T16:29:27.135Z,102437.70
2018-06-24T16:32:00.260Z,102435.43
2018-06-24T16:34:31.656Z,102438.55
2018-06-24T16:37:05.506Z,102439.77
2018-06-24T16:39:39.627Z,102442.39
2018-06-24T16:42:13.972Z,102440.48
2018-06-24T16:44:45.476Z,102437.13
2018-06-24T16:47:19.241Z,102438.09
2018-06-24T16:49:52.413Z,102440.84
2018-06-24T16:52:25.349Z,102448.72
2018-06-24T16:54:58.448Z,102447.56
2018-06-24T16:57:29.810Z,102443.52
2018-06-24T17:00:04.167Z,102445.47
2018-06-24T17:02:37.096Z,102455.36
2018-06-24T17:05:10.033Z,102448.45
2018-06-24T17:07:41.477Z,102459.39
2018-06-24T17:10:14.167Z,102454.86
2018-06-24T17:12:46.469Z,102452.18
2018-06-24T17:15:19.273Z,102453.61
2018-06-24T17:17:52.018Z,102451.39
2018-06-24T17:20:23.481Z,102454.23
2018-06-24T17:22:56.288Z,102455.56
2018-06-24T17:25:29.363Z,102456.44
2018-06-24T17:27:59.982Z,102450.77
2018-06-24T17:30:32.875Z,102451.79
2018-06-24T17:33:05.805Z,102452.18
2018-06-24T17:35:37.192Z,102450.13
2018-06-24T17:38:09.045Z,102453.17
2018-06-24T17:40:42.047Z,102453.77
2018-06-24T17:43:13.387Z,102453.95
2018-06-24T17:45:46.175Z,102460.72
2018-06-24T17:48:19.003Z,102460.30
2018-06-24T17:50:51.914Z,102451.07
2018-06-24T17:53:24.807Z,102451.26
2018-06-24T17:55:59.134Z,102451.90
2018-06-24T17:58:33.849Z,102451.72
2018-06-24T18:01:08.265Z,102450.02
2018-06-24T18:03:41.158Z,102452.14
2018-06-24T18:06:12.518Z,102451.16
2018-06-24T18:08:43.862Z,102447.51
2018-06-24T18:11:16.953Z,102449.77
2018-06-24T18:13:46.867Z,102451.58
2018-06-24T18:16:19.191Z,102447.23
2018-06-24T18:18:53.566Z,102440.41
2018-06-24T18:21:24.904Z,102446.58
2018-06-24T18:23:58.945Z,102448.59
2018-06-24T18:26:30.811Z,102450.06
2018-06-24T18:29:03.585Z,102445.50
2018-06-24T18:31:36.684Z,102444.94
2018-06-24T18:34:09.470Z,102447.48
2018-06-24T18:36:42.220Z,102447.48
2018-06-24T18:39:11.642Z,102445.92
2018-06-24T18:41:44.416Z,102446.23
2018-06-24T18:44:16.126Z,102443.80
2018-06-24T18:46:50.508Z,102445.38
2018-06-24T18:49:23.353Z,102439.85
2018-06-24T18:51:56.134Z,102434.03
2018-06-24T18:54:30.768Z,102436.69
2018-06-24T18:57:00.433Z,102438.98
2018-06-24T18:59:32.202Z,102434.47
2018-06-24T19:02:04.443Z,102440.13
2018-06-24T19:04:35.729Z,102434.98
2018-06-24T19:07:07.212Z,102442.84
2018-06-24T19:09:41.574Z,102447.45
2018-06-24T19:12:14.433Z,102446.83
2018-06-24T19:14:46.943Z,102448.52
2018-06-24T19:17:20.203Z,102445.34
2018-06-24T19:19:54.533Z,102454.97
2018-06-24T19:22:25.137Z,102456.59
2018-06-24T19:24:58.183Z,102447.12
2018-06-24T19:27:31.318Z,102446.21
2018-06-24T19:30:02.781Z,102452.17
2018-06-24T19:32:35.684Z,102458.85
2018-06-24T19:35:08.406Z,102454.02
2018-06-24T19:37:39.882Z,102453.14
2018-06-24T19:40:11.718Z,102459.20
2018-06-24T19:42:46.014Z,102469.20
2018-06-24T19:45:17.363Z,102472.16
2018-06-24T19:47:48.860Z,102471.92
2018-06-24T19:50:23.171Z,102477.61
2018-06-24T19:52:56.039Z,102480.34
2018-06-24T19:55:26.632Z,102477.19
2018-06-24T19:57:57.649Z,102476.24
2018-06-24T20:00:30.922Z,102481.78
2018-06-24T20:03:05.426Z,102475.41
2018-06-24T20:05:38.224Z,102470.76
2018-06-24T20:08:12.583Z,102470.97
2018-06-24T20:10:46.281Z,102469.86
2018-06-24T20:13:18.063Z,102486.38
2018-06-24T20:15:51.088Z,102489.31
2018-06-24T20:18:22.570Z,102479.55
2018-06-24T20:20:55.553Z,102482.05
2018-06-24T20:23:30.060Z,102487.77
2018-06-24T20:26:02.854Z,102489.41
2018-06-24T20:28:35.676Z,102486.22
2018-06-24T20:31:06.696Z,102488.55
2018-06-24T20:33:40.904Z,102487.55
2018-06-24T20:36:13.456Z,102491.13
2018-06-24T20:38:46.182Z,102483.77
2018-06-24T20:41:17.511Z,102484.88
2018-06-24T20:43:48.814Z,102494.43
2018-06-24T20:46:19.943Z,102496.81
2018-06-24T20:48:53.278Z,102489.83
2018-06-24T20:51:23.129Z,102481.69
2018-06-24T20:53:55.873Z,102480.09
2018-06-24T20:56:27.185Z,102479.81
2018-06-24T20:58:57.043Z,102475.07
2018-06-24T21:01:31.494Z,102480.36
2018-06-24T21:04:02.896Z,102480.75
2018-06-24T21:06:33.508Z,102487.28
2018-06-24T21:09:05.832Z,102496.08
2018-06-24T21:11:36.787Z,102493.23
2018-06-24T21:14:08.337Z,102493.56
2018-06-24T21:16:41.342Z,102494.59
2018-06-24T21:19:14.970Z,102499.17
2018-06-24T21:21:44.847Z,102493.52
2018-06-24T21:24:17.881Z,102492.40
2018-06-24T21:26:52.197Z,102495.42
2018-06-24T21:29:25.081Z,102493.61
2018-06-24T21:31:59.320Z,102492.91
2018-06-24T21:34:32.204Z,102496.81
2018-06-24T21:37:05.068Z,102503.10
2018-06-24T21:39:38.233Z,102509.25
2018-06-24T21:42:10.602Z,102506.95
2018-06-24T21:44:43.532Z,102500.87
2018-06-24T21:47:16.287Z,102501.20
2018-06-24T21:49:50.582Z,102492.34
2018-06-24T21:52:22.068Z,102491.01
2018-06-24T21:54:53.528Z,102500.13
2018-06-24T21:57:26.991Z,102501.95
2018-06-24T21:59:56.979Z,102498.84
2018-06-24T22:02:26.846Z,102491.44
2018-06-24T22:05:01.080Z,102492.36
2018-06-24T22:07:33.899Z,102489.57
2018-06-24T22:10:05.610Z,102491.86
2018-06-24T22:12:38.035Z,102480.36
2018-06-24T22:15:12.417Z,102490.22
2018-06-24T22:17:43.051Z,102482.73
2018-06-24T22:20:17.510Z,102483.23
2018-06-24T22:22:51.793Z,102478.06
2018-06-24T22:25:26.081Z,102477.84
2018-06-24T22:27:57.371Z,102477.95
2018-06-24T22:30:30.172Z,102487.97
2018-06-24T22:33:01.988Z,102483.76
2018-06-24T22:35:31.880Z,102492.56
2018-06-24T22:38:02.764Z,102489.78
2018-06-24T22:40:34.248Z,102481.63
2018-06-24T22:43:05.129Z,102491.61
2018-06-24T22:45:37.135Z,102489.85
2018-06-24T22:48:10.000Z,102486.55
2018-06-24T22:50:42.544Z,102481.20
2018-06-24T22:53:15.687Z,102471.66
2018-06-24T22:55:47.709Z,102475.45
2018-06-24T22:58:20.650Z,102477.52
2018-06-24T23:00:53.588Z,102464.95
2018-06-24T23:03:26.424Z,102466.88
2018-06-24T23:05:57.005Z,102465.97
2018-06-24T23:08:30.072Z,102478.92
2018-06-24T23:10:59.888Z,102484.72
2018-06-24T23:13:30.511Z,102482.69
2018-06-24T23:16:02.876Z,102478.48
2018-06-24T23:18:35.703Z,102483.18
2018-06-24T23:21:07.116Z,102478.50
2018-06-24T23:23:40.123Z,102483.83
2018-06-24T23:26:13.770Z,102487.61
2018-06-24T23:28:48.315Z,102484.29
2018-06-24T23:31:21.063Z,102483.44
2018-06-24T23:33:51.769Z,102484.07
2018-06-24T23:36:23.730Z,102482.43
2018-06-24T23:38:56.505Z,102478.13
2018-06-24T23:41:30.703Z,102492.39
2018-06-24T23:44:02.173Z,102486.25
2018-06-24T23:46:32.550Z,102479.77
2018-06-24T23:49:04.874Z,102486.25
2018-06-24T23:51:36.877Z,102487.27
2018-06-24T23:54:08.266Z,102492.70
2018-06-24T23:56:39.171Z,102497.18
2018-06-24T23:59:12.440Z,102490.83
